sensor_id;sensor_type;location;lat;lon;timestamp;P1;durP1;ratioP1;P2;durP2;ratioP2
13941;SDS011;7043;51.630;7.254;2022-08-06T00:00:05;2.73;;;1.90;;
13941;SDS011;7043;51.630;7.254;2022-08-06T00:02:32;2.93;;;2.20;;
13941;SDS011;7043;51.630;7.254;2022-08-06T00:04:59;6.30;;;2.30;;
13941;SDS011;7043;51.630;7.254;2022-08-06T00:07:25;2.73;;;2.03;;
13941;SDS011;7043;51.630;7.254;2022-08-06T00:09:52;2.43;;;2.10;;
13941;SDS011;7043;51.630;7.254;2022-08-06T00:12:18;2.90;;;2.30;;
13941;SDS011;7043;51.630;7.254;2022-08-06T00:14:44;3.70;;;2.30;;
13941;SDS011;7043;51.630;7.254;2022-08-06T00:17:10;3.97;;;2.57;;
13941;SDS011;7043;51.630;7.254;2022-08-06T00:19:36;3.60;;;2.30;;
13941;SDS011;7043;51.630;7.254;2022-08-06T00:22:02;3.93;;;2.40;;
13941;SDS011;7043;51.630;7.254;2022-08-06T00:24:28;2.80;;;2.40;;
13941;SDS011;7043;51.630;7.254;2022-08-06T00:26:54;4.13;;;2.77;;
13941;SDS011;7043;51.630;7.254;2022-08-06T00:29:20;3.50;;;2.60;;
13941;SDS011;7043;51.630;7.254;2022-08-06T00:31:46;3.40;;;2.40;;
13941;SDS011;7043;51.630;7.254;2022-08-06T00:34:12;4.50;;;2.43;;
13941;SDS011;7043;51.630;7.254;2022-08-06T00:36:38;4.47;;;2.30;;
13941;SDS011;7043;51.630;7.254;2022-08-06T00:39:05;4.63;;;2.40;;
13941;SDS011;7043;51.630;7.254;2022-08-06T00:41:32;2.50;;;2.30;;
13941;SDS011;7043;51.630;7.254;2022-08-06T00:43:59;3.73;;;2.20;;
13941;SDS011;7043;51.630;7.254;2022-08-06T00:46:25;4.23;;;2.40;;
13941;SDS011;7043;51.630;7.254;2022-08-06T00:48:52;3.77;;;2.40;;
13941;SDS011;7043;51.630;7.254;2022-08-06T00:51:18;3.37;;;2.20;;
13941;SDS011;7043;51.630;7.254;2022-08-06T00:53:44;2.87;;;2.23;;
13941;SDS011;7043;51.630;7.254;2022-08-06T00:56:10;3.97;;;2.40;;
13941;SDS011;7043;51.630;7.254;2022-08-06T00:58:36;5.10;;;2.70;;
13941;SDS011;7043;51.630;7.254;2022-08-06T01:01:03;4.33;;;2.40;;
13941;SDS011;7043;51.630;7.254;2022-08-06T01:03:29;5.10;;;2.73;;
13941;SDS011;7043;51.630;7.254;2022-08-06T01:05:56;3.97;;;2.70;;
13941;SDS011;7043;51.630;7.254;2022-08-06T01:08:22;3.53;;;2.70;;
13941;SDS011;7043;51.630;7.254;2022-08-06T01:10:48;2.90;;;2.30;;
13941;SDS011;7043;51.630;7.254;2022-08-06T01:13:14;4.53;;;2.50;;
13941;SDS011;7043;51.630;7.254;2022-08-06T01:15:40;3.60;;;2.67;;
13941;SDS011;7043;51.630;7.254;2022-08-06T01:18:09;5.13;;;2.67;;
13941;SDS011;7043;51.630;7.254;2022-08-06T01:20:42;2.93;;;2.50;;
13941;SDS011;7043;51.630;7.254;2022-08-06T01:26:00;4.97;;;3.10;;
13941;SDS011;7043;51.630;7.254;2022-08-06T01:28:32;3.40;;;3.10;;
13941;SDS011;7043;51.630;7.254;2022-08-06T01:31:06;3.77;;;3.23;;
13941;SDS011;7043;51.630;7.254;2022-08-06T01:33:35;3.90;;;2.93;;
13941;SDS011;7043;51.630;7.254;2022-08-06T01:36:04;4.03;;;2.87;;
13941;SDS011;7043;51.630;7.254;2022-08-06T01:38:32;3.50;;;3.03;;
13941;SDS011;7043;51.630;7.254;2022-08-06T01:41:00;5.40;;;3.10;;
13941;SDS011;7043;51.630;7.254;2022-08-06T01:43:27;3.73;;;2.80;;
13941;SDS011;7043;51.630;7.254;2022-08-06T01:45:53;3.63;;;2.90;;
13941;SDS011;7043;51.630;7.254;2022-08-06T01:48:21;4.10;;;2.90;;
13941;SDS011;7043;51.630;7.254;2022-08-06T01:50:48;5.10;;;3.13;;
13941;SDS011;7043;51.630;7.254;2022-08-06T01:53:28;3.27;;;2.97;;
13941;SDS011;7043;51.630;7.254;2022-08-06T01:55:57;4.57;;;2.93;;
13941;SDS011;7043;51.630;7.254;2022-08-06T01:58:25;3.80;;;3.40;;
13941;SDS011;7043;51.630;7.254;2022-08-06T02:00:52;4.17;;;3.50;;
13941;SDS011;7043;51.630;7.254;2022-08-06T02:03:19;3.80;;;3.50;;
13941;SDS011;7043;51.630;7.254;2022-08-06T02:05:48;6.23;;;3.63;;
13941;SDS011;7043;51.630;7.254;2022-08-06T02:08:16;6.57;;;4.23;;
13941;SDS011;7043;51.630;7.254;2022-08-06T02:10:43;4.40;;;4.00;;
13941;SDS011;7043;51.630;7.254;2022-08-06T02:13:10;4.03;;;3.63;;
13941;SDS011;7043;51.630;7.254;2022-08-06T02:15:38;5.87;;;3.70;;
13941;SDS011;7043;51.630;7.254;2022-08-06T02:18:05;3.93;;;3.47;;
13941;SDS011;7043;51.630;7.254;2022-08-06T02:20:52;4.17;;;3.80;;
13941;SDS011;7043;51.630;7.254;2022-08-06T02:23:18;5.03;;;3.80;;
13941;SDS011;7043;51.630;7.254;2022-08-06T02:25:45;5.70;;;4.17;;
13941;SDS011;7043;51.630;7.254;2022-08-06T02:28:12;4.20;;;3.80;;
13941;SDS011;7043;51.630;7.254;2022-08-06T02:30:43;6.23;;;4.30;;
13941;SDS011;7043;51.630;7.254;2022-08-06T02:33:10;5.13;;;4.53;;
13941;SDS011;7043;51.630;7.254;2022-08-06T02:35:43;5.77;;;4.80;;
13941;SDS011;7043;51.630;7.254;2022-08-06T02:38:12;5.40;;;4.77;;
13941;SDS011;7043;51.630;7.254;2022-08-06T02:40:42;6.70;;;5.20;;
13941;SDS011;7043;51.630;7.254;2022-08-06T02:43:14;5.60;;;5.10;;
13941;SDS011;7043;51.630;7.254;2022-08-06T02:45:48;5.80;;;4.60;;
13941;SDS011;7043;51.630;7.254;2022-08-06T02:50:43;7.53;;;4.97;;
13941;SDS011;7043;51.630;7.254;2022-08-06T02:53:13;10.37;;;5.60;;
13941;SDS011;7043;51.630;7.254;2022-08-06T02:55:42;5.70;;;5.10;;
13941;SDS011;7043;51.630;7.254;2022-08-06T03:01:09;6.60;;;5.03;;
13941;SDS011;7043;51.630;7.254;2022-08-06T03:03:35;6.43;;;5.00;;
13941;SDS011;7043;51.630;7.254;2022-08-06T03:06:03;6.73;;;5.33;;
13941;SDS011;7043;51.630;7.254;2022-08-06T03:08:30;5.23;;;4.73;;
13941;SDS011;7043;51.630;7.254;2022-08-06T03:10:56;6.57;;;5.10;;
13941;SDS011;7043;51.630;7.254;2022-08-06T03:13:23;6.53;;;5.40;;
13941;SDS011;7043;51.630;7.254;2022-08-06T03:15:49;7.53;;;5.30;;
13941;SDS011;7043;51.630;7.254;2022-08-06T03:18:16;6.33;;;5.63;;
13941;SDS011;7043;51.630;7.254;2022-08-06T03:20:43;6.53;;;5.93;;
13941;SDS011;7043;51.630;7.254;2022-08-06T03:23:09;8.17;;;5.77;;
13941;SDS011;7043;51.630;7.254;2022-08-06T03:25:36;6.03;;;5.37;;
13941;SDS011;7043;51.630;7.254;2022-08-06T03:28:03;6.97;;;6.27;;
13941;SDS011;7043;51.630;7.254;2022-08-06T03:30:30;6.97;;;5.77;;
13941;SDS011;7043;51.630;7.254;2022-08-06T03:32:56;6.33;;;5.73;;
13941;SDS011;7043;51.630;7.254;2022-08-06T03:35:23;6.53;;;5.30;;
13941;SDS011;7043;51.630;7.254;2022-08-06T03:37:50;7.57;;;5.43;;
13941;SDS011;7043;51.630;7.254;2022-08-06T03:40:17;5.87;;;5.00;;
13941;SDS011;7043;51.630;7.254;2022-08-06T03:42:44;6.90;;;5.57;;
13941;SDS011;7043;51.630;7.254;2022-08-06T03:45:10;7.70;;;5.70;;
13941;SDS011;7043;51.630;7.254;2022-08-06T03:47:38;6.87;;;5.50;;
13941;SDS011;7043;51.630;7.254;2022-08-06T03:50:09;7.50;;;5.80;;
13941;SDS011;7043;51.630;7.254;2022-08-06T03:52:38;5.67;;;5.03;;
13941;SDS011;7043;51.630;7.254;2022-08-06T03:55:06;7.37;;;5.50;;
13941;SDS011;7043;51.630;7.254;2022-08-06T03:57:38;7.17;;;5.40;;
13941;SDS011;7043;51.630;7.254;2022-08-06T04:00:06;7.30;;;5.87;;
13941;SDS011;7043;51.630;7.254;2022-08-06T04:02:39;6.80;;;5.70;;
13941;SDS011;7043;51.630;7.254;2022-08-06T04:05:06;7.30;;;5.40;;
13941;SDS011;7043;51.630;7.254;2022-08-06T04:07:33;8.37;;;5.37;;
13941;SDS011;7043;51.630;7.254;2022-08-06T04:09:59;6.83;;;5.23;;
13941;SDS011;7043;51.630;7.254;2022-08-06T04:12:27;5.60;;;5.00;;
13941;SDS011;7043;51.630;7.254;2022-08-06T04:14:54;6.33;;;5.27;;
13941;SDS011;7043;51.630;7.254;2022-08-06T04:17:20;6.17;;;5.53;;
13941;SDS011;7043;51.630;7.254;2022-08-06T04:19:47;6.57;;;5.53;;
13941;SDS011;7043;51.630;7.254;2022-08-06T04:22:14;5.43;;;4.67;;
13941;SDS011;7043;51.630;7.254;2022-08-06T04:24:40;5.87;;;5.07;;
13941;SDS011;7043;51.630;7.254;2022-08-06T04:27:06;6.23;;;5.13;;
13941;SDS011;7043;51.630;7.254;2022-08-06T04:29:33;6.50;;;5.13;;
13941;SDS011;7043;51.630;7.254;2022-08-06T04:32:00;5.90;;;5.33;;
13941;SDS011;7043;51.630;7.254;2022-08-06T04:34:27;5.90;;;5.30;;
13941;SDS011;7043;51.630;7.254;2022-08-06T04:36:55;5.83;;;5.10;;
13941;SDS011;7043;51.630;7.254;2022-08-06T04:39:21;7.13;;;5.00;;
13941;SDS011;7043;51.630;7.254;2022-08-06T04:41:48;5.67;;;4.83;;
13941;SDS011;7043;51.630;7.254;2022-08-06T04:44:14;6.63;;;4.83;;
13941;SDS011;7043;51.630;7.254;2022-08-06T04:46:40;5.93;;;4.60;;
13941;SDS011;7043;51.630;7.254;2022-08-06T04:49:08;7.10;;;4.70;;
13941;SDS011;7043;51.630;7.254;2022-08-06T04:51:34;4.80;;;4.40;;
13941;SDS011;7043;51.630;7.254;2022-08-06T04:54:03;4.40;;;4.00;;
13941;SDS011;7043;51.630;7.254;2022-08-06T04:56:30;5.90;;;5.30;;
13941;SDS011;7043;51.630;7.254;2022-08-06T04:58:56;5.40;;;4.27;;
13941;SDS011;7043;51.630;7.254;2022-08-06T05:01:22;7.57;;;5.93;;
13941;SDS011;7043;51.630;7.254;2022-08-06T05:03:47;7.07;;;4.53;;
13941;SDS011;7043;51.630;7.254;2022-08-06T05:06:32;4.30;;;3.43;;
13941;SDS011;7043;51.630;7.254;2022-08-06T05:09:01;5.30;;;3.87;;
13941;SDS011;7043;51.630;7.254;2022-08-06T05:11:32;5.33;;;3.53;;
13941;SDS011;7043;51.630;7.254;2022-08-06T05:14:04;6.73;;;3.93;;
13941;SDS011;7043;51.630;7.254;2022-08-06T05:16:34;4.83;;;3.50;;
13941;SDS011;7043;51.630;7.254;2022-08-06T05:19:04;5.63;;;3.87;;
13941;SDS011;7043;51.630;7.254;2022-08-06T05:21:32;4.70;;;3.70;;
13941;SDS011;7043;51.630;7.254;2022-08-06T05:23:58;5.33;;;4.03;;
13941;SDS011;7043;51.630;7.254;2022-08-06T05:26:25;5.23;;;3.83;;
13941;SDS011;7043;51.630;7.254;2022-08-06T05:28:51;5.57;;;3.70;;
13941;SDS011;7043;51.630;7.254;2022-08-06T05:31:30;8.03;;;4.17;;
13941;SDS011;7043;51.630;7.254;2022-08-06T05:33:56;5.10;;;3.53;;
13941;SDS011;7043;51.630;7.254;2022-08-06T05:36:22;10.30;;;4.77;;
13941;SDS011;7043;51.630;7.254;2022-08-06T05:38:48;3.87;;;3.10;;
13941;SDS011;7043;51.630;7.254;2022-08-06T05:41:14;5.10;;;3.20;;
13941;SDS011;7043;51.630;7.254;2022-08-06T05:43:40;4.47;;;3.47;;
13941;SDS011;7043;51.630;7.254;2022-08-06T05:46:10;4.93;;;3.40;;
13941;SDS011;7043;51.630;7.254;2022-08-06T05:48:44;4.53;;;3.40;;
13941;SDS011;7043;51.630;7.254;2022-08-06T05:51:12;4.90;;;3.40;;
13941;SDS011;7043;51.630;7.254;2022-08-06T05:53:44;6.80;;;4.03;;
13941;SDS011;7043;51.630;7.254;2022-08-06T05:56:16;4.67;;;3.60;;
13941;SDS011;7043;51.630;7.254;2022-08-06T05:58:44;5.43;;;4.30;;
13941;SDS011;7043;51.630;7.254;2022-08-06T06:01:12;5.00;;;3.47;;
13941;SDS011;7043;51.630;7.254;2022-08-06T06:03:40;3.90;;;3.30;;
13941;SDS011;7043;51.630;7.254;2022-08-06T06:06:06;5.13;;;3.40;;
13941;SDS011;7043;51.630;7.254;2022-08-06T06:08:33;5.77;;;3.70;;
13941;SDS011;7043;51.630;7.254;2022-08-06T06:11:00;6.60;;;3.00;;
13941;SDS011;7043;51.630;7.254;2022-08-06T06:13:27;6.77;;;3.53;;
13941;SDS011;7043;51.630;7.254;2022-08-06T06:15:55;5.40;;;3.40;;
13941;SDS011;7043;51.630;7.254;2022-08-06T06:23:46;3.30;;;2.83;;
13941;SDS011;7043;51.630;7.254;2022-08-06T06:34:25;3.77;;;2.63;;
13941;SDS011;7043;51.630;7.254;2022-08-06T06:37:09;4.50;;;2.77;;
13941;SDS011;7043;51.630;7.254;2022-08-06T06:39:39;4.83;;;2.50;;
13941;SDS011;7043;51.630;7.254;2022-08-06T06:42:15;3.00;;;2.67;;
13941;SDS011;7043;51.630;7.254;2022-08-06T06:44:44;3.50;;;2.67;;
13941;SDS011;7043;51.630;7.254;2022-08-06T06:47:16;4.53;;;2.47;;
13941;SDS011;7043;51.630;7.254;2022-08-06T06:49:44;4.63;;;2.67;;
13941;SDS011;7043;51.630;7.254;2022-08-06T06:52:16;3.00;;;2.17;;
13941;SDS011;7043;51.630;7.254;2022-08-06T06:54:43;4.67;;;2.30;;
13941;SDS011;7043;51.630;7.254;2022-08-06T06:57:11;5.87;;;2.63;;
13941;SDS011;7043;51.630;7.254;2022-08-06T06:59:39;4.13;;;2.30;;
13941;SDS011;7043;51.630;7.254;2022-08-06T07:02:08;3.97;;;2.10;;
13941;SDS011;7043;51.630;7.254;2022-08-06T07:04:39;4.27;;;2.47;;
13941;SDS011;7043;51.630;7.254;2022-08-06T07:07:06;3.47;;;1.70;;
13941;SDS011;7043;51.630;7.254;2022-08-06T07:09:32;2.73;;;1.40;;
13941;SDS011;7043;51.630;7.254;2022-08-06T07:11:59;2.77;;;1.03;;
13941;SDS011;7043;51.630;7.254;2022-08-06T07:14:26;2.53;;;1.20;;
13941;SDS011;7043;51.630;7.254;2022-08-06T07:16:54;3.03;;;1.10;;
13941;SDS011;7043;51.630;7.254;2022-08-06T07:19:21;0.87;;;0.83;;
13941;SDS011;7043;51.630;7.254;2022-08-06T07:21:48;2.77;;;1.20;;
13941;SDS011;7043;51.630;7.254;2022-08-06T07:24:15;2.17;;;1.20;;
13941;SDS011;7043;51.630;7.254;2022-08-06T07:26:42;2.67;;;1.30;;
13941;SDS011;7043;51.630;7.254;2022-08-06T07:29:09;2.17;;;1.10;;
13941;SDS011;7043;51.630;7.254;2022-08-06T07:31:36;4.83;;;1.17;;
13941;SDS011;7043;51.630;7.254;2022-08-06T07:34:02;1.30;;;0.70;;
13941;SDS011;7043;51.630;7.254;2022-08-06T07:36:32;3.60;;;0.90;;
13941;SDS011;7043;51.630;7.254;2022-08-06T07:39:00;2.47;;;0.90;;
13941;SDS011;7043;51.630;7.254;2022-08-06T07:41:27;1.50;;;0.50;;
13941;SDS011;7043;51.630;7.254;2022-08-06T07:43:54;2.30;;;0.77;;
13941;SDS011;7043;51.630;7.254;2022-08-06T07:46:25;0.97;;;0.50;;
13941;SDS011;7043;51.630;7.254;2022-08-06T07:49:04;1.10;;;0.50;;
13941;SDS011;7043;51.630;7.254;2022-08-06T07:51:34;1.83;;;0.57;;
13941;SDS011;7043;51.630;7.254;2022-08-06T07:54:04;1.03;;;0.53;;
13941;SDS011;7043;51.630;7.254;2022-08-06T07:56:31;2.40;;;0.50;;
13941;SDS011;7043;51.630;7.254;2022-08-06T07:58:58;1.20;;;0.43;;
13941;SDS011;7043;51.630;7.254;2022-08-06T08:01:26;1.80;;;0.50;;
13941;SDS011;7043;51.630;7.254;2022-08-06T08:03:53;1.00;;;0.30;;
13941;SDS011;7043;51.630;7.254;2022-08-06T08:06:39;1.00;;;0.40;;
13941;SDS011;7043;51.630;7.254;2022-08-06T08:09:07;1.53;;;0.40;;
13941;SDS011;7043;51.630;7.254;2022-08-06T08:11:34;0.93;;;0.35;;
13941;SDS011;7043;51.630;7.254;2022-08-06T08:14:06;0.85;;;0.43;;
13941;SDS011;7043;51.630;7.254;2022-08-06T08:16:33;0.90;;;0.50;;
13941;SDS011;7043;51.630;7.254;2022-08-06T08:19:00;0.82;;;0.40;;
13941;SDS011;7043;51.630;7.254;2022-08-06T08:21:26;0.70;;;0.30;;
13941;SDS011;7043;51.630;7.254;2022-08-06T08:23:52;0.50;;;0.30;;
13941;SDS011;7043;51.630;7.254;2022-08-06T08:26:18;0.68;;;0.28;;
13941;SDS011;7043;51.630;7.254;2022-08-06T08:28:44;1.17;;;0.23;;
13941;SDS011;7043;51.630;7.254;2022-08-06T08:31:13;1.40;;;0.25;;
13941;SDS011;7043;51.630;7.254;2022-08-06T08:33:39;2.53;;;0.30;;
13941;SDS011;7043;51.630;7.254;2022-08-06T08:36:05;0.97;;;0.30;;
13941;SDS011;7043;51.630;7.254;2022-08-06T08:38:32;1.80;;;0.33;;
13941;SDS011;7043;51.630;7.254;2022-08-06T08:41:21;0.45;;;0.40;;
13941;SDS011;7043;51.630;7.254;2022-08-06T08:43:46;1.90;;;0.40;;
13941;SDS011;7043;51.630;7.254;2022-08-06T08:46:14;1.38;;;0.30;;
13941;SDS011;7043;51.630;7.254;2022-08-06T08:48:40;0.87;;;0.40;;
13941;SDS011;7043;51.630;7.254;2022-08-06T08:51:08;1.35;;;0.40;;
13941;SDS011;7043;51.630;7.254;2022-08-06T08:53:39;1.25;;;0.55;;
13941;SDS011;7043;51.630;7.254;2022-08-06T08:56:08;1.98;;;0.40;;
13941;SDS011;7043;51.630;7.254;2022-08-06T08:58:34;0.90;;;0.40;;
13941;SDS011;7043;51.630;7.254;2022-08-06T09:01:02;1.33;;;0.40;;
13941;SDS011;7043;51.630;7.254;2022-08-06T09:03:28;2.28;;;0.43;;
13941;SDS011;7043;51.630;7.254;2022-08-06T09:05:54;7.32;;;1.38;;
13941;SDS011;7043;51.630;7.254;2022-08-06T09:08:20;3.43;;;0.40;;
13941;SDS011;7043;51.630;7.254;2022-08-06T09:10:47;1.08;;;0.30;;
13941;SDS011;7043;51.630;7.254;2022-08-06T09:13:13;2.50;;;0.40;;
13941;SDS011;7043;51.630;7.254;2022-08-06T09:15:39;1.42;;;0.45;;
13941;SDS011;7043;51.630;7.254;2022-08-06T09:18:05;1.00;;;0.30;;
13941;SDS011;7043;51.630;7.254;2022-08-06T09:20:33;0.90;;;0.47;;
13941;SDS011;7043;51.630;7.254;2022-08-06T09:22:59;1.40;;;0.40;;
13941;SDS011;7043;51.630;7.254;2022-08-06T09:28:00;0.70;;;0.40;;
13941;SDS011;7043;51.630;7.254;2022-08-06T09:30:26;2.08;;;0.50;;
13941;SDS011;7043;51.630;7.254;2022-08-06T09:32:52;0.47;;;0.30;;
13941;SDS011;7043;51.630;7.254;2022-08-06T09:35:27;1.10;;;0.40;;
13941;SDS011;7043;51.630;7.254;2022-08-06T09:38:04;1.05;;;0.30;;
13941;SDS011;7043;51.630;7.254;2022-08-06T09:40:30;0.93;;;0.40;;
13941;SDS011;7043;51.630;7.254;2022-08-06T09:42:56;1.05;;;0.43;;
13941;SDS011;7043;51.630;7.254;2022-08-06T09:45:23;1.38;;;0.50;;
13941;SDS011;7043;51.630;7.254;2022-08-06T09:47:59;0.85;;;0.32;;
13941;SDS011;7043;51.630;7.254;2022-08-06T09:50:36;1.90;;;0.50;;
13941;SDS011;7043;51.630;7.254;2022-08-06T09:53:02;1.73;;;0.40;;
13941;SDS011;7043;51.630;7.254;2022-08-06T09:55:29;1.55;;;0.45;;
13941;SDS011;7043;51.630;7.254;2022-08-06T09:57:55;1.52;;;0.50;;
13941;SDS011;7043;51.630;7.254;2022-08-06T10:00:25;1.30;;;0.40;;
13941;SDS011;7043;51.630;7.254;2022-08-06T10:02:58;1.75;;;0.40;;
13941;SDS011;7043;51.630;7.254;2022-08-06T10:05:25;2.55;;;0.55;;
13941;SDS011;7043;51.630;7.254;2022-08-06T10:13:23;1.70;;;0.77;;
13941;SDS011;7043;51.630;7.254;2022-08-06T10:15:50;3.35;;;0.68;;
13941;SDS011;7043;51.630;7.254;2022-08-06T10:18:33;1.27;;;0.40;;
13941;SDS011;7043;51.630;7.254;2022-08-06T10:21:03;2.75;;;0.70;;
13941;SDS011;7043;51.630;7.254;2022-08-06T10:23:30;0.75;;;0.50;;
13941;SDS011;7043;51.630;7.254;2022-08-06T10:25:57;1.08;;;0.50;;
13941;SDS011;7043;51.630;7.254;2022-08-06T10:28:23;0.60;;;0.32;;
13941;SDS011;7043;51.630;7.254;2022-08-06T10:30:51;0.95;;;0.50;;
13941;SDS011;7043;51.630;7.254;2022-08-06T10:33:18;2.55;;;0.55;;
13941;SDS011;7043;51.630;7.254;2022-08-06T10:35:45;0.93;;;0.50;;
13941;SDS011;7043;51.630;7.254;2022-08-06T10:38:13;1.25;;;0.40;;
13941;SDS011;7043;51.630;7.254;2022-08-06T10:40:41;1.15;;;0.30;;
13941;SDS011;7043;51.630;7.254;2022-08-06T10:43:09;0.98;;;0.30;;
13941;SDS011;7043;51.630;7.254;2022-08-06T10:45:35;2.22;;;0.60;;
13941;SDS011;7043;51.630;7.254;2022-08-06T10:48:02;2.25;;;0.50;;
13941;SDS011;7043;51.630;7.254;2022-08-06T10:50:29;1.55;;;0.50;;
13941;SDS011;7043;51.630;7.254;2022-08-06T10:52:56;1.75;;;0.38;;
13941;SDS011;7043;51.630;7.254;2022-08-06T10:55:22;1.05;;;0.40;;
13941;SDS011;7043;51.630;7.254;2022-08-06T10:57:48;1.60;;;0.50;;
13941;SDS011;7043;51.630;7.254;2022-08-06T11:00:14;0.80;;;0.35;;
13941;SDS011;7043;51.630;7.254;2022-08-06T11:05:42;0.73;;;0.50;;
13941;SDS011;7043;51.630;7.254;2022-08-06T11:11:46;1.60;;;0.43;;
13941;SDS011;7043;51.630;7.254;2022-08-06T11:16:25;1.27;;;0.35;;
13941;SDS011;7043;51.630;7.254;2022-08-06T11:24:02;2.17;;;0.50;;
13941;SDS011;7043;51.630;7.254;2022-08-06T11:26:36;0.52;;;0.20;;
13941;SDS011;7043;51.630;7.254;2022-08-06T11:29:03;1.05;;;0.40;;
13941;SDS011;7043;51.630;7.254;2022-08-06T11:31:34;1.25;;;0.47;;
13941;SDS011;7043;51.630;7.254;2022-08-06T11:34:01;0.70;;;0.40;;
13941;SDS011;7043;51.630;7.254;2022-08-06T11:36:28;1.90;;;0.52;;
13941;SDS011;7043;51.630;7.254;2022-08-06T11:39:07;2.33;;;0.40;;
13941;SDS011;7043;51.630;7.254;2022-08-06T11:41:42;0.60;;;0.30;;
13941;SDS011;7043;51.630;7.254;2022-08-06T11:44:08;6.38;;;1.02;;
13941;SDS011;7043;51.630;7.254;2022-08-06T11:54:14;0.43;;;0.30;;
13941;SDS011;7043;51.630;7.254;2022-08-06T11:59:34;1.17;;;0.40;;
13941;SDS011;7043;51.630;7.254;2022-08-06T12:02:47;1.45;;;0.40;;
13941;SDS011;7043;51.630;7.254;2022-08-06T12:04:47;1.00;;;0.45;;
13941;SDS011;7043;51.630;7.254;2022-08-06T12:07:26;1.20;;;0.52;;
13941;SDS011;7043;51.630;7.254;2022-08-06T12:14:56;1.35;;;0.40;;
13941;SDS011;7043;51.630;7.254;2022-08-06T12:17:23;1.50;;;0.50;;
13941;SDS011;7043;51.630;7.254;2022-08-06T12:19:50;0.75;;;0.38;;
13941;SDS011;7043;51.630;7.254;2022-08-06T12:22:19;0.80;;;0.50;;
13941;SDS011;7043;51.630;7.254;2022-08-06T12:24:45;1.52;;;0.73;;
13941;SDS011;7043;51.630;7.254;2022-08-06T12:27:14;2.17;;;0.50;;
13941;SDS011;7043;51.630;7.254;2022-08-06T12:29:40;1.27;;;0.40;;
13941;SDS011;7043;51.630;7.254;2022-08-06T12:34:48;1.52;;;0.50;;
13941;SDS011;7043;51.630;7.254;2022-08-06T12:37:15;1.10;;;0.38;;
13941;SDS011;7043;51.630;7.254;2022-08-06T12:39:41;2.70;;;0.50;;
13941;SDS011;7043;51.630;7.254;2022-08-06T12:42:26;2.00;;;0.45;;
13941;SDS011;7043;51.630;7.254;2022-08-06T12:44:52;1.55;;;0.40;;
13941;SDS011;7043;51.630;7.254;2022-08-06T12:47:19;2.17;;;0.43;;
13941;SDS011;7043;51.630;7.254;2022-08-06T12:49:45;1.27;;;0.40;;
13941;SDS011;7043;51.630;7.254;2022-08-06T12:52:12;1.85;;;0.40;;
13941;SDS011;7043;51.630;7.254;2022-08-06T12:54:38;2.25;;;0.40;;
13941;SDS011;7043;51.630;7.254;2022-08-06T12:57:04;1.77;;;0.50;;
13941;SDS011;7043;51.630;7.254;2022-08-06T12:59:30;0.73;;;0.40;;
13941;SDS011;7043;51.630;7.254;2022-08-06T13:01:57;0.70;;;0.40;;
13941;SDS011;7043;51.630;7.254;2022-08-06T13:04:23;1.30;;;0.40;;
13941;SDS011;7043;51.630;7.254;2022-08-06T13:06:49;0.98;;;0.20;;
13941;SDS011;7043;51.630;7.254;2022-08-06T13:09:16;1.75;;;0.40;;
13941;SDS011;7043;51.630;7.254;2022-08-06T13:11:44;0.90;;;0.35;;
13941;SDS011;7043;51.630;7.254;2022-08-06T13:14:12;0.90;;;0.30;;
13941;SDS011;7043;51.630;7.254;2022-08-06T13:16:40;0.77;;;0.40;;
13941;SDS011;7043;51.630;7.254;2022-08-06T13:19:10;0.75;;;0.32;;
13941;SDS011;7043;51.630;7.254;2022-08-06T13:21:37;0.90;;;0.40;;
13941;SDS011;7043;51.630;7.254;2022-08-06T13:24:04;1.20;;;0.50;;
13941;SDS011;7043;51.630;7.254;2022-08-06T13:26:31;1.20;;;0.30;;
13941;SDS011;7043;51.630;7.254;2022-08-06T13:29:08;2.00;;;0.52;;
13941;SDS011;7043;51.630;7.254;2022-08-06T13:31:35;2.03;;;0.52;;
13941;SDS011;7043;51.630;7.254;2022-08-06T13:34:02;1.20;;;0.30;;
13941;SDS011;7043;51.630;7.254;2022-08-06T13:36:29;0.70;;;0.40;;
13941;SDS011;7043;51.630;7.254;2022-08-06T13:38:55;0.75;;;0.38;;
13941;SDS011;7043;51.630;7.254;2022-08-06T13:41:23;2.08;;;0.50;;
13941;SDS011;7043;51.630;7.254;2022-08-06T13:43:49;1.23;;;0.43;;
13941;SDS011;7043;51.630;7.254;2022-08-06T13:46:16;1.05;;;0.40;;
13941;SDS011;7043;51.630;7.254;2022-08-06T13:48:42;1.63;;;0.60;;
13941;SDS011;7043;51.630;7.254;2022-08-06T13:51:12;1.25;;;0.50;;
13941;SDS011;7043;51.630;7.254;2022-08-06T13:53:38;2.13;;;0.50;;
13941;SDS011;7043;51.630;7.254;2022-08-06T13:56:04;0.88;;;0.35;;
13941;SDS011;7043;51.630;7.254;2022-08-06T13:58:30;1.27;;;0.63;;
13941;SDS011;7043;51.630;7.254;2022-08-06T14:00:57;2.17;;;0.60;;
13941;SDS011;7043;51.630;7.254;2022-08-06T14:03:23;0.68;;;0.40;;
13941;SDS011;7043;51.630;7.254;2022-08-06T14:05:50;0.50;;;0.30;;
13941;SDS011;7043;51.630;7.254;2022-08-06T14:08:16;1.13;;;0.47;;
13941;SDS011;7043;51.630;7.254;2022-08-06T14:10:42;1.23;;;0.40;;
13941;SDS011;7043;51.630;7.254;2022-08-06T14:13:08;1.33;;;0.30;;
13941;SDS011;7043;51.630;7.254;2022-08-06T14:15:44;1.40;;;0.47;;
13941;SDS011;7043;51.630;7.254;2022-08-06T14:18:10;1.05;;;0.70;;
13941;SDS011;7043;51.630;7.254;2022-08-06T14:20:36;1.98;;;0.50;;
13941;SDS011;7043;51.630;7.254;2022-08-06T14:23:03;1.75;;;0.68;;
13941;SDS011;7043;51.630;7.254;2022-08-06T14:25:30;1.20;;;0.50;;
13941;SDS011;7043;51.630;7.254;2022-08-06T14:27:56;1.10;;;0.45;;
13941;SDS011;7043;51.630;7.254;2022-08-06T14:30:22;0.55;;;0.35;;
13941;SDS011;7043;51.630;7.254;2022-08-06T14:32:48;2.13;;;0.47;;
13941;SDS011;7043;51.630;7.254;2022-08-06T14:35:15;1.38;;;0.70;;
13941;SDS011;7043;51.630;7.254;2022-08-06T14:37:41;2.63;;;0.60;;
13941;SDS011;7043;51.630;7.254;2022-08-06T14:40:08;2.03;;;0.57;;
13941;SDS011;7043;51.630;7.254;2022-08-06T14:42:34;1.58;;;0.63;;
13941;SDS011;7043;51.630;7.254;2022-08-06T14:45:19;3.15;;;0.70;;
13941;SDS011;7043;51.630;7.254;2022-08-06T14:47:45;4.68;;;1.05;;
13941;SDS011;7043;51.630;7.254;2022-08-06T14:50:12;1.48;;;0.73;;
13941;SDS011;7043;51.630;7.254;2022-08-06T14:52:38;0.95;;;0.52;;
13941;SDS011;7043;51.630;7.254;2022-08-06T14:55:05;2.13;;;0.65;;
13941;SDS011;7043;51.630;7.254;2022-08-06T14:57:32;1.80;;;0.63;;
13941;SDS011;7043;51.630;7.254;2022-08-06T14:59:58;2.20;;;0.63;;
13941;SDS011;7043;51.630;7.254;2022-08-06T15:02:24;1.50;;;0.60;;
13941;SDS011;7043;51.630;7.254;2022-08-06T15:04:50;1.58;;;0.45;;
13941;SDS011;7043;51.630;7.254;2022-08-06T15:07:16;1.17;;;0.55;;
13941;SDS011;7043;51.630;7.254;2022-08-06T15:09:42;1.60;;;0.70;;
13941;SDS011;7043;51.630;7.254;2022-08-06T15:12:09;0.65;;;0.40;;
13941;SDS011;7043;51.630;7.254;2022-08-06T15:14:35;0.70;;;0.40;;
13941;SDS011;7043;51.630;7.254;2022-08-06T15:17:01;0.82;;;0.50;;
13941;SDS011;7043;51.630;7.254;2022-08-06T15:19:27;0.93;;;0.38;;
13941;SDS011;7043;51.630;7.254;2022-08-06T15:21:53;2.08;;;0.70;;
13941;SDS011;7043;51.630;7.254;2022-08-06T15:24:19;1.42;;;0.95;;
13941;SDS011;7043;51.630;7.254;2022-08-06T15:26:45;1.58;;;0.60;;
13941;SDS011;7043;51.630;7.254;2022-08-06T15:29:11;0.57;;;0.52;;
13941;SDS011;7043;51.630;7.254;2022-08-06T15:31:37;0.68;;;0.30;;
13941;SDS011;7043;51.630;7.254;2022-08-06T15:34:03;0.70;;;0.40;;
13941;SDS011;7043;51.630;7.254;2022-08-06T15:36:30;1.27;;;0.70;;
13941;SDS011;7043;51.630;7.254;2022-08-06T15:38:56;1.70;;;0.70;;
13941;SDS011;7043;51.630;7.254;2022-08-06T15:41:22;2.28;;;0.40;;
13941;SDS011;7043;51.630;7.254;2022-08-06T15:43:51;0.75;;;0.50;;
13941;SDS011;7043;51.630;7.254;2022-08-06T15:46:17;1.27;;;0.70;;
13941;SDS011;7043;51.630;7.254;2022-08-06T15:48:44;1.50;;;0.43;;
13941;SDS011;7043;51.630;7.254;2022-08-06T15:51:10;2.28;;;0.63;;
13941;SDS011;7043;51.630;7.254;2022-08-06T15:53:36;2.88;;;1.02;;
13941;SDS011;7043;51.630;7.254;2022-08-06T15:56:02;2.30;;;0.60;;
13941;SDS011;7043;51.630;7.254;2022-08-06T15:58:28;2.22;;;0.40;;
13941;SDS011;7043;51.630;7.254;2022-08-06T16:00:54;1.50;;;0.63;;
13941;SDS011;7043;51.630;7.254;2022-08-06T16:03:20;1.00;;;0.47;;
13941;SDS011;7043;51.630;7.254;2022-08-06T16:05:46;2.03;;;0.60;;